Time;durP1;ratioP1;P1;durP2;ratioP2;P2;SDS_P1;SDS_P2;PMS_P1;PMS_P2;Temp;Humidity;BMP_temperature;BMP_pressure;BME280_temperature;BME280_humidity;BME280_pressure;Samples;Min_cycle;Max_cycle;Signal;HPM_P1;HPM_P2
2023/02/22 00:01:21;;;;;;;7.90;7.10;;;7.70;99.90;;;;;;4970312;28;21016;-72
2023/02/22 00:03:49;;;;;;;8.00;6.80;;;7.70;99.90;;;;;;4969734;28;20446;-71
2023/02/22 00:06:18;;;;;;;8.50;6.30;;;7.60;99.90;;;;;;4971062;28;20510;-71
2023/02/22 00:08:45;;;;;;;8.70;6.40;;;7.70;99.90;;;;;;4971362;28;20502;-71
2023/02/22 00:11:13;;;;;;;9.77;6.53;;;7.60;99.90;;;;;;4971643;28;20471;-71
2023/02/22 00:13:38;;;;;;;10.73;7.37;;;7.60;99.90;;;;;;4971049;28;20443;-71
2023/02/22 00:16:05;;;;;;;8.00;6.20;;;7.60;99.90;;;;;;4971532;28;20447;-71
2023/02/22 00:18:30;;;;;;;8.60;6.30;;;7.60;99.90;;;;;;4970516;28;20682;-71
2023/02/22 00:21:00;;;;;;;14.03;7.40;;;7.50;99.90;;;;;;4971840;28;20466;-71
2023/02/22 00:23:28;;;;;;;11.20;7.90;;;7.50;99.90;;;;;;4974952;28;20184;-72
2023/02/22 00:25:57;;;;;;;10.63;6.50;;;7.50;99.90;;;;;;4974027;28;20887;-71
2023/02/22 00:28:23;;;;;;;8.07;6.47;;;7.50;99.90;;;;;;4973759;28;20431;-71
2023/02/22 00:30:49;;;;;;;10.10;6.07;;;7.50;99.90;;;;;;4975069;28;20459;-72
2023/02/22 00:33:16;;;;;;;10.20;6.10;;;7.50;99.90;;;;;;4975369;28;20502;-71
2023/02/22 00:35:47;;;;;;;9.47;5.60;;;7.50;99.90;;;;;;4974289;28;20446;-72
2023/02/22 00:38:15;;;;;;;7.30;5.93;;;7.50;99.90;;;;;;4973595;28;20471;-72
2023/02/22 00:40:41;;;;;;;8.23;5.70;;;7.50;99.90;;;;;;4973869;28;20510;-72
2023/02/22 00:43:06;;;;;;;6.83;5.60;;;7.50;99.90;;;;;;4974892;28;20515;-71
2023/02/22 00:45:33;;;;;;;6.27;4.40;;;7.50;99.90;;;;;;4971601;28;20184;-72
2023/02/22 00:47:59;;;;;;;15.20;7.67;;;7.50;99.90;;;;;;4971245;28;20275;-72
2023/02/22 00:50:27;;;;;;;12.33;6.30;;;7.40;99.90;;;;;;4974009;28;20555;-72
2023/02/22 00:52:55;;;;;;;8.80;5.03;;;7.40;99.90;;;;;;4974775;28;20440;-71
2023/02/22 00:55:26;;;;;;;7.77;5.00;;;7.40;99.90;;;;;;4974719;28;20944;-72
2023/02/22 00:57:53;;;;;;;10.97;4.60;;;7.50;99.90;;;;;;4973801;28;20474;-72
2023/02/22 01:00:32;;;;;;;13.13;5.87;;;7.50;99.90;;;;;;4973665;28;20634;-72
2023/02/22 01:02:58;;;;;;;9.17;4.80;;;7.50;99.90;;;;;;4973027;28;20949;-71
2023/02/22 01:05:26;;;;;;;4.90;3.77;;;7.50;99.90;;;;;;4972882;28;20463;-71
2023/02/22 01:07:52;;;;;;;6.73;4.87;;;7.40;99.90;;;;;;4973424;28;20184;-72
2023/02/22 01:10:20;;;;;;;6.07;4.23;;;7.40;99.90;;;;;;4973953;28;20459;-72
2023/02/22 01:12:46;;;;;;;9.37;5.10;;;7.30;99.90;;;;;;4974332;28;20443;-72
2023/02/22 01:15:13;;;;;;;8.10;4.30;;;7.30;99.90;;;;;;4973327;28;20815;-72
2023/02/22 01:17:40;;;;;;;9.53;5.10;;;7.30;99.90;;;;;;4974192;28;20467;-71
2023/02/22 01:20:14;;;;;;;8.73;4.60;;;7.20;99.90;;;;;;4972359;28;20498;-72
2023/02/22 01:22:41;;;;;;;5.73;3.80;;;7.20;99.90;;;;;;4974224;28;20854;-71
2023/02/22 01:25:09;;;;;;;6.57;4.40;;;7.20;99.90;;;;;;4974283;28;20443;-71
2023/02/22 01:27:35;;;;;;;7.10;4.10;;;7.10;99.90;;;;;;4973450;28;20474;-72
2023/02/22 01:30:07;;;;;;;6.27;4.00;;;7.10;99.90;;;;;;4971715;28;20452;-71
2023/02/22 01:32:36;;;;;;;8.50;5.70;;;7.10;99.90;;;;;;4973128;28;20823;-71
2023/02/22 01:35:03;;;;;;;14.13;6.07;;;7.10;99.90;;;;;;4974061;28;20450;-71
2023/02/22 01:37:32;;;;;;;14.93;6.53;;;7.10;99.90;;;;;;4973730;28;20475;-72
2023/02/22 01:39:57;;;;;;;7.80;4.63;;;7.10;99.90;;;;;;4972421;28;20519;-72
2023/02/22 01:42:23;;;;;;;6.63;4.20;;;7.10;99.90;;;;;;4973860;28;20444;-72
2023/02/22 01:45:27;;;;;;;12.67;5.80;;;7.10;99.90;;;;;;4972908;28;20168;-72
2023/02/22 01:47:54;;;;;;;19.20;6.30;;;7.10;99.90;;;;;;4969806;28;20542;-72
2023/02/22 01:50:20;;;;;;;8.27;5.43;;;7.00;99.90;;;;;;4972699;28;20539;-72
2023/02/22 01:52:46;;;;;;;14.57;6.33;;;7.00;99.90;;;;;;4973589;28;20470;-72
2023/02/22 01:55:11;;;;;;;29.13;7.53;;;6.90;99.90;;;;;;4973443;28;20440;-72
2023/02/22 01:57:37;;;;;;;23.43;6.80;;;6.90;99.90;;;;;;4973596;28;20705;-72
2023/02/22 02:00:11;;;;;;;29.53;7.17;;;6.90;99.90;;;;;;4970526;28;20196;-72
2023/02/22 02:02:40;;;;;;;7.00;4.93;;;6.90;99.90;;;;;;4973186;28;20440;-72
2023/02/22 02:05:07;;;;;;;7.73;5.90;;;6.90;99.90;;;;;;4959580;28;20436;-72
2023/02/22 02:07:34;;;;;;;9.23;5.70;;;6.90;99.90;;;;;;4973328;28;20450;-72
2023/02/22 02:10:03;;;;;;;9.40;6.60;;;6.90;99.90;;;;;;4970956;28;20490;-72
2023/02/22 02:12:34;;;;;;;9.90;6.17;;;6.90;99.90;;;;;;4973926;28;20446;-72
2023/02/22 02:15:29;;;;;;;7.90;6.77;;;7.00;99.90;;;;;;4972892;28;20452;-72
2023/02/22 02:17:59;;;;;;;10.50;6.63;;;7.10;99.90;;;;;;4971265;28;20478;-72
2023/02/22 02:20:41;;;;;;;7.57;6.73;;;7.10;99.90;;;;;;4966764;28;20465;-72
2023/02/22 02:23:41;;;;;;;7.83;5.43;;;7.00;99.90;;;;;;4965226;28;20436;-72
2023/02/22 02:26:39;;;;;;;7.10;5.50;;;7.00;99.90;;;;;;4971060;28;20494;-72
2023/02/22 02:29:10;;;;;;;12.83;7.10;;;7.00;99.90;;;;;;4962686;28;20713;-72
2023/02/22 02:31:39;;;;;;;9.43;6.50;;;6.90;99.90;;;;;;4972060;28;20467;-72
2023/02/22 02:34:20;;;;;;;8.33;6.27;;;6.90;99.90;;;;;;4971046;28;20431;-72
2023/02/22 02:36:59;;;;;;;10.90;7.87;;;6.90;99.90;;;;;;4965739;28;20433;-72
2023/02/22 02:40:10;;;;;;;10.60;8.40;;;6.90;99.90;;;;;;4971829;28;20446;-72
2023/02/22 02:42:42;;;;;;;8.10;6.90;;;6.80;99.90;;;;;;4972653;28;20439;-72
2023/02/22 02:45:12;;;;;;;8.93;8.00;;;6.80;99.90;;;;;;4970049;28;20503;-72
2023/02/22 02:47:43;;;;;;;11.00;8.40;;;6.80;99.90;;;;;;4972786;28;20570;-72
2023/02/22 02:50:19;;;;;;;14.23;8.53;;;6.80;99.90;;;;;;4968443;28;20451;-72
2023/02/22 02:52:46;;;;;;;9.53;8.40;;;6.70;99.90;;;;;;4969469;28;20440;-72
2023/02/22 02:55:12;;;;;;;13.07;8.50;;;6.70;99.90;;;;;;4972637;28;20431;-72
2023/02/22 02:57:38;;;;;;;13.00;8.63;;;6.70;99.90;;;;;;4972576;28;20554;-72
2023/02/22 03:00:24;;;;;;;11.30;9.20;;;6.70;99.90;;;;;;4972172;28;20542;-72
2023/02/22 03:03:01;;;;;;;12.73;9.10;;;6.70;99.90;;;;;;4970610;28;20226;-72
2023/02/22 03:05:46;;;;;;;15.03;8.70;;;6.70;99.90;;;;;;4971147;28;20431;-72
2023/02/22 03:08:42;;;;;;;10.97;8.30;;;6.80;99.90;;;;;;4968140;28;20439;-72
2023/02/22 03:11:15;;;;;;;10.57;7.43;;;6.80;99.90;;;;;;4965028;28;20521;-72
2023/02/22 03:14:15;;;;;;;13.60;9.70;;;6.80;99.90;;;;;;4971095;28;20427;-72
2023/02/22 03:17:03;;;;;;;10.27;8.20;;;6.70;99.90;;;;;;4971896;28;20443;-72
2023/02/22 03:19:45;;;;;;;11.90;8.23;;;6.60;99.90;;;;;;4966881;28;20445;-72
2023/02/22 03:22:17;;;;;;;9.80;7.87;;;6.60;99.90;;;;;;4967819;28;20485;-72
2023/02/22 03:25:00;;;;;;;9.20;8.30;;;6.50;99.90;;;;;;4971976;28;20526;-72
2023/02/22 03:27:33;;;;;;;10.37;7.87;;;6.50;99.90;;;;;;4971997;28;20437;-72
2023/02/22 03:30:04;;;;;;;9.73;8.37;;;6.40;99.90;;;;;;4971424;28;20459;-72
2023/02/22 03:32:36;;;;;;;9.70;7.90;;;6.30;99.90;;;;;;4970240;28;20439;-72
2023/02/22 03:35:08;;;;;;;10.40;8.77;;;6.20;99.90;;;;;;4977991;28;20428;-72
2023/02/22 03:37:39;;;;;;;10.10;8.20;;;6.20;99.90;;;;;;4971849;28;20555;-72
2023/02/22 03:40:14;;;;;;;12.50;7.50;;;6.10;99.90;;;;;;4978537;28;20461;-72
2023/02/22 03:42:47;;;;;;;11.57;7.30;;;6.10;99.90;;;;;;4971895;28;20449;-73
2023/02/22 03:45:16;;;;;;;11.40;9.07;;;6.10;99.90;;;;;;4972164;28;20438;-72
2023/02/22 03:47:51;;;;;;;8.47;7.63;;;6.00;99.90;;;;;;4971791;28;20442;-72
2023/02/22 03:50:28;;;;;;;11.80;9.07;;;6.00;99.90;;;;;;4971097;28;20509;-72
2023/02/22 03:52:57;;;;;;;13.07;8.13;;;6.00;99.90;;;;;;4978838;28;20470;-73
2023/02/22 03:55:24;;;;;;;10.40;7.80;;;6.00;99.90;;;;;;4973290;28;20530;-72
2023/02/22 03:57:54;;;;;;;13.87;7.97;;;6.00;99.90;;;;;;4975435;28;20463;-73
2023/02/22 04:00:23;;;;;;;12.27;9.10;;;5.90;99.90;;;;;;4970074;28;20458;-73
2023/02/22 04:02:49;;;;;;;11.30;8.30;;;5.90;99.90;;;;;;4973581;28;20459;-73
2023/02/22 04:05:15;;;;;;;12.43;7.97;;;5.90;99.90;;;;;;4975595;28;20478;-73
2023/02/22 04:07:41;;;;;;;10.27;8.77;;;5.90;99.90;;;;;;4975608;28;20937;-73
2023/02/22 04:10:08;;;;;;;9.13;8.13;;;5.90;99.90;;;;;;4974935;28;20442;-73
2023/02/22 04:12:34;;;;;;;16.47;8.67;;;5.90;99.90;;;;;;4974570;28;20243;-73
2023/02/22 04:15:00;;;;;;;13.30;8.70;;;5.90;99.90;;;;;;4973630;28;20447;-73
2023/02/22 04:17:26;;;;;;;15.53;8.80;;;5.90;99.90;;;;;;4974951;28;20467;-72
2023/02/22 04:19:52;;;;;;;10.63;9.10;;;5.90;99.90;;;;;;4973788;28;20434;-72
2023/02/22 04:22:18;;;;;;;16.07;8.40;;;5.80;99.90;;;;;;4974712;28;20242;-72
2023/02/22 04:24:44;;;;;;;13.40;9.00;;;5.80;99.90;;;;;;4974119;28;20646;-73
2023/02/22 04:27:10;;;;;;;17.23;9.33;;;5.70;99.90;;;;;;4978402;28;20439;-73
2023/02/22 04:29:35;;;;;;;12.10;8.37;;;5.70;99.90;;;;;;4978029;28;20431;-73
2023/02/22 04:32:01;;;;;;;12.83;8.80;;;5.60;99.90;;;;;;4975554;28;20455;-73
2023/02/22 04:34:26;;;;;;;13.70;9.37;;;5.60;99.90;;;;;;4974504;28;20188;-73
2023/02/22 04:36:52;;;;;;;10.90;8.43;;;5.60;99.90;;;;;;4972730;28;20185;-73
2023/02/22 04:39:17;;;;;;;10.30;8.50;;;5.60;99.90;;;;;;4974102;28;20741;-73
2023/02/22 04:41:43;;;;;;;9.03;7.97;;;5.60;99.90;;;;;;4974924;28;20204;-73
2023/02/22 04:44:08;;;;;;;16.90;9.43;;;5.60;99.90;;;;;;4977974;28;20184;-73
2023/02/22 04:46:34;;;;;;;19.67;9.80;;;5.60;99.90;;;;;;4974101;28;20216;-72
2023/02/22 04:48:59;;;;;;;15.80;9.40;;;5.60;99.90;;;;;;4973574;28;20574;-73
2023/02/22 04:51:25;;;;;;;11.30;10.20;;;5.50;99.90;;;;;;4974655;28;20212;-73
2023/02/22 04:53:50;;;;;;;14.60;8.57;;;5.50;99.90;;;;;;4974597;28;20188;-73
2023/02/22 04:56:17;;;;;;;16.20;10.07;;;5.40;99.90;;;;;;4974008;28;20206;-73
2023/02/22 04:58:43;;;;;;;9.10;8.03;;;5.50;99.90;;;;;;4973294;28;20295;-73
2023/02/22 05:01:08;;;;;;;11.70;8.93;;;5.40;99.90;;;;;;4974364;28;20559;-71
2023/02/22 05:03:36;;;;;;;12.37;9.60;;;5.30;99.90;;;;;;4974339;28;20271;-72
2023/02/22 05:06:02;;;;;;;13.73;9.57;;;5.30;99.90;;;;;;4973326;28;20224;-71
2023/02/22 05:08:28;;;;;;;18.10;14.00;;;5.30;99.90;;;;;;4972590;28;21448;-71
2023/02/22 05:10:54;;;;;;;13.23;10.80;;;5.30;99.90;;;;;;4973031;28;20196;-72
2023/02/22 05:13:19;;;;;;;14.00;9.70;;;5.30;99.90;;;;;;4973202;28;20564;-72
2023/02/22 05:15:45;;;;;;;12.43;9.80;;;5.20;99.90;;;;;;4973288;28;20577;-72
2023/02/22 05:18:10;;;;;;;11.57;9.07;;;5.20;99.90;;;;;;4969794;28;20223;-72
2023/02/22 05:20:36;;;;;;;13.43;9.60;;;5.10;99.90;;;;;;4973259;28;20200;-72
2023/02/22 05:23:02;;;;;;;10.87;9.77;;;5.10;99.90;;;;;;4972602;28;20231;-72
2023/02/22 05:25:28;;;;;;;11.83;8.70;;;5.10;99.90;;;;;;4973840;28;20251;-72
2023/02/22 05:27:58;;;;;;;11.63;9.30;;;5.00;99.90;;;;;;4971967;28;20578;-72
2023/02/22 05:30:27;;;;;;;10.80;9.63;;;5.00;99.90;;;;;;4972541;28;20209;-72
2023/02/22 05:32:52;;;;;;;11.73;9.20;;;5.00;99.90;;;;;;4972758;28;20447;-72
2023/02/22 05:35:20;;;;;;;11.53;9.13;;;5.00;99.90;;;;;;4973415;28;21008;-72
2023/02/22 05:37:45;;;;;;;11.27;8.13;;;5.00;99.90;;;;;;4972679;28;20342;-72
2023/02/22 05:40:13;;;;;;;10.30;8.60;;;5.10;99.90;;;;;;4970965;28;20538;-72
2023/02/22 05:42:39;;;;;;;15.30;9.27;;;5.10;99.90;;;;;;4974457;28;20178;-72
2023/02/22 05:45:05;;;;;;;12.10;9.27;;;5.10;99.90;;;;;;4972818;28;20515;-72
2023/02/22 05:47:31;;;;;;;15.30;9.47;;;5.20;99.90;;;;;;4972884;28;20440;-71
2023/02/22 05:49:56;;;;;;;13.83;9.90;;;5.10;99.90;;;;;;4975139;28;20454;-71
2023/02/22 05:52:22;;;;;;;12.20;8.80;;;5.20;99.90;;;;;;4978233;28;20188;-72
2023/02/22 05:54:47;;;;;;;13.40;8.23;;;5.20;99.90;;;;;;4973625;28;20187;-71
2023/02/22 05:57:13;;;;;;;10.60;8.43;;;5.20;99.90;;;;;;4971936;28;20188;-72
2023/02/22 05:59:38;;;;;;;16.37;10.10;;;5.20;99.90;;;;;;4970976;28;20231;-72
2023/02/22 06:02:04;;;;;;;12.37;10.50;;;5.20;99.90;;;;;;4968087;28;20199;-72
2023/02/22 06:04:29;;;;;;;9.87;8.57;;;5.20;99.90;;;;;;4972031;28;20184;-72
2023/02/22 06:06:55;;;;;;;10.87;8.73;;;5.20;99.90;;;;;;4975617;28;20188;-72
2023/02/22 06:09:20;;;;;;;12.70;8.90;;;5.20;99.90;;;;;;4973435;28;20219;-72
2023/02/22 06:11:46;;;;;;;13.43;10.07;;;5.30;99.90;;;;;;4971715;28;20279;-71
2023/02/22 06:14:11;;;;;;;10.23;9.10;;;5.30;99.90;;;;;;4972725;28;20188;-71
2023/02/22 06:16:37;;;;;;;10.00;8.30;;;5.30;99.90;;;;;;4972591;28;20187;-72
2023/02/22 06:19:02;;;;;;;11.63;9.43;;;5.30;99.90;;;;;;4972050;28;20215;-72
2023/02/22 06:21:28;;;;;;;12.50;8.17;;;5.30;99.90;;;;;;4972047;28;20569;-72
2023/02/22 06:23:54;;;;;;;9.87;8.87;;;5.30;99.90;;;;;;4972879;28;20203;-72
2023/02/22 06:26:19;;;;;;;17.63;9.77;;;5.30;99.90;;;;;;4973141;28;20188;-72
2023/02/22 06:28:45;;;;;;;15.57;10.10;;;5.30;99.90;;;;;;4971702;28;20758;-73
2023/02/22 06:31:11;;;;;;;13.57;9.90;;;5.40;99.90;;;;;;4972650;28;20204;-71
2023/02/22 06:33:37;;;;;;;11.80;9.90;;;5.30;99.90;;;;;;4971858;28;20894;-72
2023/02/22 06:36:04;;;;;;;13.10;9.40;;;5.30;99.90;;;;;;4972666;28;20271;-72
2023/02/22 06:38:30;;;;;;;12.40;9.23;;;5.40;99.90;;;;;;4971273;28;20203;-72
2023/02/22 06:40:55;;;;;;;16.60;9.53;;;5.40;99.90;;;;;;4972998;28;20542;-71
2023/02/22 06:43:23;;;;;;;11.60;9.73;;;5.50;99.90;;;;;;4968794;28;20510;-69
2023/02/22 06:45:49;;;;;;;11.73;9.70;;;5.60;99.90;;;;;;4974144;28;20207;-70
2023/02/22 06:48:14;;;;;;;13.30;8.57;;;5.50;99.90;;;;;;4970949;28;20452;-74
2023/02/22 06:50:40;;;;;;;14.83;9.43;;;5.70;99.90;;;;;;4970653;28;20459;-73
2023/02/22 06:53:05;;;;;;;12.57;9.20;;;5.80;99.90;;;;;;4972079;28;20202;-73
2023/02/22 06:55:33;;;;;;;16.50;9.93;;;5.80;99.90;;;;;;4973361;28;20188;-73
2023/02/22 06:57:59;;;;;;;13.10;10.70;;;6.00;99.90;;;;;;4972245;28;20641;-73
2023/02/22 07:00:27;;;;;;;14.80;10.37;;;6.10;99.90;;;;;;4969748;28;20566;-73
2023/02/22 07:02:55;;;;;;;11.47;9.20;;;6.30;99.90;;;;;;4970263;28;21045;-72
2023/02/22 07:05:22;;;;;;;14.40;10.03;;;6.50;99.90;;;;;;4972279;28;20427;-74
2023/02/22 07:07:51;;;;;;;11.07;8.90;;;6.70;99.90;;;;;;4973032;28;20455;-72
2023/02/22 07:10:35;;;;;;;13.30;8.33;;;6.80;99.90;;;;;;4972358;28;20474;-74
2023/02/22 07:13:01;;;;;;;14.47;9.10;;;6.90;99.90;;;;;;4973260;28;20430;-73
2023/02/22 07:15:29;;;;;;;14.73;9.63;;;7.10;99.90;;;;;;4971843;28;20420;-73
2023/02/22 07:17:55;;;;;;;11.77;8.73;;;7.30;99.90;;;;;;4972985;28;20901;-73
2023/02/22 07:20:22;;;;;;;19.80;10.60;;;7.40;99.90;;;;;;4972389;28;20435;-73
2023/02/22 07:22:48;;;;;;;19.03;10.60;;;7.60;99.90;;;;;;4972961;28;20419;-73
2023/02/22 07:25:14;;;;;;;19.60;10.87;;;7.80;99.90;;;;;;4973016;28;20481;-74
2023/02/22 07:27:40;;;;;;;13.53;10.07;;;8.00;99.90;;;;;;4973034;28;20169;-73
2023/02/22 07:30:18;;;;;;;9.83;8.70;;;8.20;99.90;;;;;;4973039;28;20245;-73
2023/02/22 07:32:45;;;;;;;11.03;9.07;;;8.30;99.90;;;;;;4976754;28;20434;-73
2023/02/22 07:35:15;;;;;;;13.50;9.33;;;8.40;99.90;;;;;;4957092;28;20424;-76
2023/02/22 07:37:41;;;;;;;13.17;10.07;;;8.50;99.90;;;;;;4954378;28;20463;-74
2023/02/22 07:40:10;;;;;;;17.93;10.00;;;8.60;99.90;;;;;;4975700;28;20420;-74
2023/02/22 07:42:56;;;;;;;17.03;9.77;;;8.60;99.90;;;;;;4976895;28;20171;-74
2023/02/22 07:45:23;;;;;;;14.20;9.10;;;8.50;99.90;;;;;;4973378;28;20459;-73
2023/02/22 07:47:49;;;;;;;15.00;9.20;;;8.60;99.90;;;;;;4976737;28;20431;-74
2023/02/22 07:50:15;;;;;;;15.07;9.60;;;8.70;99.90;;;;;;4974764;28;20439;-74
2023/02/22 07:52:49;;;;;;;13.33;9.60;;;8.80;99.90;;;;;;4974105;28;20180;-74
2023/02/22 07:55:20;;;;;;;13.90;10.03;;;9.00;99.90;;;;;;4973174;28;20458;-75
2023/02/22 07:57:47;;;;;;;11.27;8.70;;;9.20;99.90;;;;;;4976325;28;20497;-74
2023/02/22 08:00:15;;;;;;;15.10;10.73;;;9.50;99.90;;;;;;4975264;28;20463;-74
2023/02/22 08:02:42;;;;;;;9.60;8.70;;;9.60;99.90;;;;;;4975974;28;20489;-72
2023/02/22 08:05:09;;;;;;;12.70;8.67;;;9.70;99.90;;;;;;4972836;28;20415;-74
2023/02/22 08:07:35;;;;;;;10.43;8.40;;;10.00;99.90;;;;;;4973897;28;20941;-73
2023/02/22 08:10:05;;;;;;;15.50;10.50;;;10.40;99.90;;;;;;4975345;28;20427;-73
2023/02/22 08:12:31;;;;;;;10.73;9.50;;;10.90;99.90;;;;;;4974025;28;20534;-73
2023/02/22 08:14:57;;;;;;;11.60;9.10;;;11.30;99.90;;;;;;4971124;28;21019;-73
2023/02/22 08:17:22;;;;;;;14.43;10.77;;;11.60;99.90;;;;;;4974647;28;20494;-73
2023/02/22 08:19:48;;;;;;;14.37;10.97;;;11.70;99.90;;;;;;4974445;28;20219;-73
2023/02/22 08:22:13;;;;;;;12.70;10.10;;;11.90;99.90;;;;;;4975229;28;20255;-74
2023/02/22 08:24:39;;;;;;;16.37;9.53;;;12.00;99.90;;;;;;4973622;28;20585;-73
2023/02/22 08:27:05;;;;;;;11.87;10.53;;;12.30;99.90;;;;;;4975804;28;20575;-74
2023/02/22 08:29:32;;;;;;;12.30;10.10;;;12.50;99.90;;;;;;4973947;28;20450;-73
2023/02/22 08:31:58;;;;;;;10.93;9.93;;;12.60;99.90;;;;;;4975766;28;20243;-73
2023/02/22 08:34:24;;;;;;;11.80;10.50;;;13.00;99.90;;;;;;4971985;28;20980;-74
2023/02/22 08:36:49;;;;;;;9.73;8.63;;;13.40;99.90;;;;;;4975185;28;20419;-73
2023/02/22 08:39:15;;;;;;;15.50;10.87;;;13.90;99.90;;;;;;4974964;28;20204;-74
2023/02/22 08:41:40;;;;;;;10.67;9.70;;;14.00;99.90;;;;;;4973619;28;20196;-74
2023/02/22 08:44:06;;;;;;;12.63;10.50;;;14.60;99.90;;;;;;4975529;28;20642;-73
2023/02/22 08:46:31;;;;;;;14.43;12.93;;;15.20;99.90;;;;;;4972256;28;20183;-75
2023/02/22 08:48:57;;;;;;;11.83;10.63;;;15.70;99.90;;;;;;4973848;28;20180;-73
2023/02/22 08:51:23;;;;;;;11.00;9.97;;;16.20;99.90;;;;;;4975549;28;20200;-74
2023/02/22 08:53:49;;;;;;;12.53;10.80;;;16.70;99.90;;;;;;4974478;28;20207;-74
2023/02/22 08:56:14;;;;;;;10.37;9.40;;;17.30;98.70;;;;;;4970984;28;20526;-74
2023/02/22 08:58:40;;;;;;;11.73;10.50;;;17.90;96.20;;;;;;4973600;28;20720;-74
2023/02/22 09:01:05;;;;;;;11.70;9.50;;;18.20;93.90;;;;;;4972240;28;20220;-75
2023/02/22 09:03:31;;;;;;;11.13;9.93;;;17.90;93.50;;;;;;4968512;28;20196;-75
2023/02/22 09:05:58;;;;;;;10.43;9.50;;;17.40;93.40;;;;;;4970883;28;20239;-76
2023/02/22 09:08:24;;;;;;;13.70;11.50;;;17.80;94.20;;;;;;4974169;28;20223;-74
2023/02/22 09:10:49;;;;;;;9.90;8.90;;;18.30;92.00;;;;;;4973810;28;20439;-74
2023/02/22 09:13:15;;;;;;;10.90;9.43;;;18.30;91.60;;;;;;4973893;28;20554;-75
2023/02/22 09:15:42;;;;;;;9.47;8.57;;;18.80;91.00;;;;;;4971399;28;20173;-74
2023/02/22 09:18:10;;;;;;;9.60;8.60;;;19.10;88.30;;;;;;4973596;28;20262;-74
2023/02/22 09:20:36;;;;;;;12.20;10.00;;;19.80;85.00;;;;;;4972911;28;20495;-74
2023/02/22 09:23:04;;;;;;;12.10;9.43;;;20.80;81.80;;;;;;4974591;28;20430;-74
2023/02/22 09:25:29;;;;;;;12.57;9.33;;;20.60;77.70;;;;;;4969647;28;20458;-72
2023/02/22 09:27:56;;;;;;;14.93;9.33;;;20.80;77.00;;;;;;4974409;28;20420;-72
2023/02/22 09:30:26;;;;;;;11.73;9.60;;;21.10;75.20;;;;;;4973117;28;20282;-72
2023/02/22 09:32:54;;;;;;;9.70;8.80;;;21.40;72.30;;;;;;4974177;28;20432;-74
2023/02/22 09:35:25;;;;;;;12.93;9.80;;;21.20;71.30;;;;;;4971050;28;20840;-73
2023/02/22 09:37:52;;;;;;;11.23;10.13;;;20.80;71.20;;;;;;4971915;28;20554;-73
2023/02/22 09:40:23;;;;;;;12.57;10.40;;;20.30;73.20;;;;;;4973427;28;20468;-72
2023/02/22 09:43:29;;;;;;;13.23;11.93;;;20.40;72.70;;;;;;4973513;28;20470;-72
2023/02/22 09:46:04;;;;;;;13.90;11.00;;;20.50;72.20;;;;;;4965662;28;20423;-72
2023/02/22 09:48:33;;;;;;;11.70;10.60;;;20.30;71.40;;;;;;4973401;28;20521;-74
2023/02/22 09:51:01;;;;;;;12.80;10.97;;;19.60;72.70;;;;;;4972657;28;20455;-74
2023/02/22 09:53:40;;;;;;;10.37;9.50;;;19.80;72.20;;;;;;4973411;28;20452;-74
2023/02/22 09:56:09;;;;;;;13.67;10.83;;;20.50;71.00;;;;;;4970146;28;20522;-73
2023/02/22 09:58:59;;;;;;;11.07;9.90;;;21.10;69.60;;;;;;4968258;28;20468;-72
2023/02/22 10:01:38;;;;;;;9.97;9.07;;;21.60;66.20;;;;;;4973428;28;20512;-72
2023/02/22 10:04:31;;;;;;;10.70;9.13;;;21.80;64.50;;;;;;4973000;28;20566;-72
2023/02/22 10:07:11;;;;;;;11.13;9.93;;;21.70;63.70;;;;;;4972241;28;20498;-75
2023/02/22 10:09:43;;;;;;;9.63;8.73;;;21.70;63.90;;;;;;4972287;28;20423;-74
2023/02/22 10:12:22;;;;;;;11.87;9.07;;;22.00;62.40;;;;;;4973042;28;20554;-72
2023/02/22 10:15:33;;;;;;;10.03;8.33;;;22.30;61.60;;;;;;4969541;28;20428;-75
2023/02/22 10:18:16;;;;;;;13.57;8.17;;;22.20;60.90;;;;;;4924678;28;20535;-75
2023/02/22 10:20:54;;;;;;;11.93;8.80;;;22.20;61.80;;;;;;4955158;28;20471;-75
2023/02/22 10:23:27;;;;;;;10.23;8.80;;;23.10;59.00;;;;;;4973001;28;20792;-75
2023/02/22 10:26:00;;;;;;;13.33;7.60;;;23.00;57.50;;;;;;4968597;28;20459;-74
2023/02/22 10:28:38;;;;;;;8.73;7.53;;;23.40;56.80;;;;;;4963590;28;21014;-75
2023/02/22 10:31:07;;;;;;;8.90;8.03;;;23.40;56.20;;;;;;4973146;28;20467;-74
2023/02/22 10:33:40;;;;;;;9.37;8.33;;;23.30;56.00;;;;;;4972410;28;20412;-74
2023/02/22 10:36:17;;;;;;;9.50;8.50;;;23.20;56.00;;;;;;4966646;28;20423;-74
2023/02/22 10:38:52;;;;;;;8.73;7.93;;;23.20;55.80;;;;;;4971696;28;20501;-73
2023/02/22 10:41:43;;;;;;;9.23;8.33;;;23.10;55.70;;;;;;4972498;28;20458;-72
2023/02/22 10:44:09;;;;;;;8.80;7.73;;;23.40;55.00;;;;;;4972513;28;20541;-73
2023/02/22 10:46:35;;;;;;;15.43;8.07;;;23.10;55.10;;;;;;4969578;28;20456;-71
2023/02/22 10:49:06;;;;;;;14.23;8.77;;;23.30;55.20;;;;;;4972365;28;20423;-72
2023/02/22 10:51:31;;;;;;;9.80;8.80;;;22.80;54.80;;;;;;4972232;28;20451;-72
2023/02/22 10:54:16;;;;;;;8.73;7.40;;;23.20;55.40;;;;;;4972211;28;20447;-71
2023/02/22 10:56:54;;;;;;;11.97;8.60;;;23.50;54.30;;;;;;4970610;28;20591;-71
2023/02/22 10:59:38;;;;;;;9.47;8.50;;;24.50;53.20;;;;;;4971659;28;20467;-72
2023/02/22 11:02:22;;;;;;;7.73;6.97;;;24.00;52.90;;;;;;4972894;28;20539;-72
2023/02/22 11:04:48;;;;;;;10.37;8.07;;;24.00;52.80;;;;;;4968203;28;20423;-72
2023/02/22 11:07:27;;;;;;;10.40;7.83;;;24.70;51.60;;;;;;4972192;28;20925;-72
2023/02/22 11:10:08;;;;;;;9.10;7.77;;;24.70;51.30;;;;;;4971123;28;20172;-72
2023/02/22 11:12:40;;;;;;;11.03;8.70;;;25.20;50.70;;;;;;4972243;28;20424;-72
2023/02/22 11:15:28;;;;;;;9.43;8.07;;;25.70;50.10;;;;;;4968991;28;20996;-69
2023/02/22 11:17:56;;;;;;;9.87;7.40;;;25.50;51.10;;;;;;4971364;28;20542;-69
2023/02/22 11:20:24;;;;;;;8.70;7.80;;;25.80;51.10;;;;;;4971804;28;21043;-69
2023/02/22 11:22:56;;;;;;;12.40;8.17;;;25.30;50.10;;;;;;4971930;28;20844;-70
2023/02/22 11:25:30;;;;;;;9.90;8.90;;;24.50;50.70;;;;;;4968971;28;20537;-68
2023/02/22 11:28:08;;;;;;;10.10;8.90;;;24.00;51.70;;;;;;4972366;28;20423;-67
2023/02/22 11:30:34;;;;;;;10.13;8.73;;;22.70;52.60;;;;;;4971401;28;20998;-70
2023/02/22 11:33:22;;;;;;;9.87;8.60;;;21.30;54.70;;;;;;4972544;28;20420;-70
2023/02/22 11:35:57;;;;;;;10.33;9.33;;;21.50;56.40;;;;;;4967736;28;20446;-70
2023/02/22 11:38:28;;;;;;;11.37;9.50;;;22.60;54.10;;;;;;4971638;28;20929;-70
2023/02/22 11:41:16;;;;;;;12.03;9.80;;;22.50;54.70;;;;;;4972047;28;20534;-70
2023/02/22 11:43:43;;;;;;;14.30;9.87;;;22.80;53.80;;;;;;4971408;28;20431;-70
2023/02/22 11:46:20;;;;;;;11.60;10.50;;;23.40;53.40;;;;;;4969177;28;20428;-71
2023/02/22 11:49:05;;;;;;;11.10;8.90;;;23.50;52.90;;;;;;4962545;28;20423;-70
2023/02/22 11:52:16;;;;;;;11.53;8.80;;;23.00;54.10;;;;;;4972224;28;20531;-70
2023/02/22 11:55:06;;;;;;;12.13;9.37;;;22.00;54.90;;;;;;4962368;28;20450;-70
2023/02/22 11:58:03;;;;;;;11.80;9.10;;;21.70;56.50;;;;;;4971742;28;20458;-70
2023/02/22 12:01:18;;;;;;;11.70;10.50;;;23.10;55.10;;;;;;4963221;28;20823;-70
2023/02/22 12:04:02;;;;;;;11.47;10.23;;;23.00;53.70;;;;;;4955487;28;20810;-70
2023/02/22 12:06:54;;;;;;;12.40;11.23;;;21.80;55.20;;;;;;4967787;28;20412;-70
2023/02/22 12:09:39;;;;;;;12.13;10.83;;;20.50;57.40;;;;;;4971684;28;20824;-70
2023/02/22 12:12:24;;;;;;;14.27;10.43;;;19.40;59.70;;;;;;4971467;28;20493;-70
2023/02/22 12:15:37;;;;;;;12.13;9.63;;;18.90;62.60;;;;;;4969240;28;20960;-70
2023/02/22 12:18:17;;;;;;;11.07;10.07;;;20.60;60.60;;;;;;4973277;28;20455;-70
2023/02/22 12:20:53;;;;;;;12.87;10.43;;;21.90;57.60;;;;;;4975350;28;20975;-70
2023/02/22 12:23:49;;;;;;;11.20;10.20;;;22.20;56.90;;;;;;4975642;28;20498;-70
2023/02/22 12:26:29;;;;;;;11.77;10.63;;;21.90;58.00;;;;;;4971334;28;20411;-70
2023/02/22 12:29:03;;;;;;;12.23;10.93;;;22.50;57.20;;;;;;4975003;28;20423;-70
2023/02/22 12:31:29;;;;;;;12.17;10.83;;;22.60;56.40;;;;;;4974425;28;20455;-69
2023/02/22 12:34:00;;;;;;;10.57;9.67;;;23.40;55.20;;;;;;4975110;28;20521;-70
2023/02/22 12:36:39;;;;;;;13.17;11.30;;;24.40;54.10;;;;;;4972180;28;20208;-70
2023/02/22 12:39:34;;;;;;;12.60;11.47;;;25.00;52.60;;;;;;4973407;28;20470;-71
2023/02/22 12:42:02;;;;;;;11.53;10.43;;;25.10;52.40;;;;;;4975357;28;20474;-70
2023/02/22 12:44:33;;;;;;;12.97;11.67;;;25.40;51.90;;;;;;4971605;28;20478;-70
2023/02/22 12:47:01;;;;;;;11.50;10.40;;;25.00;52.10;;;;;;4974353;28;20438;-71
2023/02/22 12:49:44;;;;;;;13.23;12.03;;;24.80;52.10;;;;;;4973891;28;20424;-71
2023/02/22 12:52:12;;;;;;;12.17;11.07;;;24.40;52.10;;;;;;4974266;28;20443;-71
2023/02/22 12:54:44;;;;;;;13.77;10.07;;;23.90;53.60;;;;;;4972510;28;20438;-71
2023/02/22 12:57:33;;;;;;;14.43;10.50;;;24.00;52.70;;;;;;4973111;28;20510;-70
2023/02/22 13:00:09;;;;;;;12.93;10.97;;;24.20;52.30;;;;;;4973863;28;21003;-70
2023/02/22 13:02:42;;;;;;;12.83;10.03;;;25.00;52.10;;;;;;4974541;28;20913;-70
2023/02/22 13:05:16;;;;;;;10.67;9.67;;;25.80;50.70;;;;;;4971491;28;20515;-71